Time;durP1;ratioP1;P1;durP2;ratioP2;P2;SDS_P1;SDS_P2;PMS_P1;PMS_P2;Temp;Humidity;BMP_temperature;BMP_pressure;BME280_temperature;BME280_humidity;BME280_pressure;Samples;Min_cycle;Max_cycle;Signal;HPM_P1;HPM_P2
2022/05/12 00:00:20;;;;;;;4.45;2.05;;;12.60;99.90;;;;;;4993056;28;20397;-81
2022/05/12 00:02:48;;;;;;;5.70;2.20;;;12.60;99.90;;;;;;4993000;28;20468;-81
2022/05/12 00:05:17;;;;;;;5.40;2.20;;;12.60;99.90;;;;;;4992894;28;20404;-81
2022/05/12 00:07:46;;;;;;;7.90;2.13;;;12.60;99.90;;;;;;4992857;28;20851;-81
2022/05/12 00:10:16;;;;;;;5.60;1.90;;;12.60;99.90;;;;;;4994847;28;20400;-81
2022/05/12 00:12:45;;;;;;;7.97;2.20;;;12.60;99.90;;;;;;4999003;28;20462;-81
2022/05/12 00:15:17;;;;;;;5.97;2.03;;;12.60;99.90;;;;;;4992359;28;20431;-81
2022/05/12 00:17:45;;;;;;;6.78;2.58;;;12.60;99.90;;;;;;4983316;28;20451;-80
2022/05/12 00:20:15;;;;;;;30.20;4.50;;;12.50;99.90;;;;;;5007145;28;20400;-80
2022/05/12 00:22:43;;;;;;;6.47;2.90;;;12.50;99.90;;;;;;4991475;28;20799;-81
2022/05/12 00:25:15;;;;;;;7.15;2.55;;;12.50;99.90;;;;;;5005302;28;20401;-81
2022/05/12 00:27:42;;;;;;;7.68;2.88;;;12.50;99.90;;;;;;5007433;28;20397;-81
2022/05/12 00:30:12;;;;;;;9.15;3.60;;;12.50;99.90;;;;;;5011821;28;20434;-81
2022/05/12 00:32:43;;;;;;;6.07;2.63;;;12.50;99.90;;;;;;5011729;28;20391;-81
2022/05/12 00:35:13;;;;;;;4.50;2.73;;;12.50;99.90;;;;;;5009991;28;20395;-81
2022/05/12 00:37:40;;;;;;;6.40;2.72;;;12.50;99.90;;;;;;5011749;28;20394;-80
2022/05/12 00:40:08;;;;;;;7.53;2.70;;;12.50;99.90;;;;;;5011332;28;20391;-81
2022/05/12 00:42:53;;;;;;;7.05;2.80;;;12.40;99.90;;;;;;5011440;28;20482;-81
2022/05/12 00:45:21;;;;;;;6.90;3.07;;;12.50;99.90;;;;;;4992281;28;20818;-81
2022/05/12 00:47:49;;;;;;;5.85;2.90;;;12.40;99.90;;;;;;4993838;28;20401;-81
2022/05/12 00:50:18;;;;;;;6.77;2.67;;;12.50;99.90;;;;;;4990591;28;20393;-81
2022/05/12 00:52:45;;;;;;;6.10;2.53;;;12.50;99.90;;;;;;4999645;28;20424;-81
2022/05/12 00:55:18;;;;;;;8.20;2.80;;;12.50;99.90;;;;;;5006794;28;20717;-81
2022/05/12 00:57:52;;;;;;;6.73;2.63;;;12.50;99.90;;;;;;5000278;28;20444;-81
2022/05/12 01:00:21;;;;;;;5.45;2.00;;;12.40;99.90;;;;;;4990456;28;20399;-81
2022/05/12 01:02:53;;;;;;;6.32;2.40;;;12.40;99.90;;;;;;5009627;28;20431;-80
2022/05/12 01:05:24;;;;;;;6.50;2.20;;;12.40;99.90;;;;;;4990073;28;20498;-81
2022/05/12 01:07:57;;;;;;;6.88;2.05;;;12.40;99.90;;;;;;4999752;28;20399;-81
2022/05/12 01:10:26;;;;;;;7.88;2.40;;;12.40;99.90;;;;;;5008811;28;20405;-81
2022/05/12 01:12:53;;;;;;;5.32;2.13;;;12.30;99.90;;;;;;4993833;28;20389;-81
2022/05/12 01:15:27;;;;;;;5.72;2.03;;;12.30;99.90;;;;;;5010193;28;20414;-80
2022/05/12 01:18:17;;;;;;;5.38;2.15;;;12.30;99.90;;;;;;5010082;28;20405;-81
2022/05/12 01:20:46;;;;;;;4.32;2.10;;;12.30;99.90;;;;;;4991536;28;20393;-81
2022/05/12 01:23:25;;;;;;;4.45;1.90;;;12.30;99.90;;;;;;4991733;28;20455;-81
2022/05/12 01:26:00;;;;;;;5.13;2.03;;;12.30;99.90;;;;;;4974157;28;20484;-81
2022/05/12 01:28:29;;;;;;;6.32;2.10;;;12.30;99.90;;;;;;4993777;28;20395;-81
2022/05/12 01:30:57;;;;;;;5.07;1.90;;;12.30;99.90;;;;;;4994521;28;20471;-81
2022/05/12 01:33:26;;;;;;;5.93;1.83;;;12.30;99.90;;;;;;5002275;28;20417;-80
2022/05/12 01:35:54;;;;;;;8.40;2.30;;;12.20;99.90;;;;;;4995825;28;21005;-81
2022/05/12 01:38:23;;;;;;;6.25;2.20;;;12.20;99.90;;;;;;4995667;28;20393;-81
2022/05/12 01:40:52;;;;;;;4.20;1.90;;;12.10;99.90;;;;;;4995585;28;20480;-81
2022/05/12 01:43:20;;;;;;;2.97;1.90;;;12.00;99.90;;;;;;4995617;28;20392;-81
2022/05/12 01:45:48;;;;;;;4.55;2.00;;;12.00;99.90;;;;;;4994545;28;20414;-81
2022/05/12 01:48:16;;;;;;;6.82;2.10;;;12.00;99.90;;;;;;5013055;28;20398;-81
2022/05/12 01:50:45;;;;;;;5.90;2.00;;;11.90;99.90;;;;;;5014496;28;20379;-81
2022/05/12 01:53:16;;;;;;;4.22;1.70;;;11.90;99.90;;;;;;5013309;28;20391;-80
2022/05/12 01:55:48;;;;;;;5.78;1.95;;;11.90;99.90;;;;;;4996897;28;20478;-80
2022/05/12 01:58:20;;;;;;;7.67;2.63;;;11.90;99.90;;;;;;5013159;28;20449;-80
2022/05/12 02:00:49;;;;;;;5.80;2.03;;;11.90;99.90;;;;;;5009240;28;20887;-80
2022/05/12 02:03:17;;;;;;;4.78;1.95;;;11.80;99.90;;;;;;4993982;28;20400;-80
2022/05/12 02:05:46;;;;;;;7.93;2.35;;;11.80;99.90;;;;;;4993937;28;20405;-80
2022/05/12 02:08:15;;;;;;;5.18;2.22;;;11.80;99.90;;;;;;4994210;28;20428;-80
2022/05/12 02:10:45;;;;;;;5.85;3.10;;;11.70;99.90;;;;;;4995011;28;20395;-80
2022/05/12 02:13:14;;;;;;;5.88;2.80;;;11.70;99.90;;;;;;4995033;28;20480;-80
2022/05/12 02:15:42;;;;;;;7.78;2.85;;;11.70;99.90;;;;;;4993682;28;20925;-80
2022/05/12 02:18:11;;;;;;;4.72;2.50;;;11.60;99.90;;;;;;5009969;28;20407;-80
2022/05/12 02:20:38;;;;;;;50.00;5.95;;;11.60;99.90;;;;;;4994845;28;20389;-80
2022/05/12 02:23:06;;;;;;;5.97;2.90;;;11.60;99.90;;;;;;4993721;28;20437;-80
2022/05/12 02:25:34;;;;;;;6.80;3.23;;;11.60;99.90;;;;;;5009829;28;20408;-80
2022/05/12 02:28:01;;;;;;;6.70;3.25;;;11.60;99.90;;;;;;4977428;28;20879;-80
2022/05/12 02:30:31;;;;;;;5.13;2.80;;;11.60;99.90;;;;;;4994958;28;20451;-81
2022/05/12 02:32:59;;;;;;;4.88;2.63;;;11.60;99.90;;;;;;4994543;28;20740;-80
2022/05/12 02:35:28;;;;;;;5.63;2.72;;;11.60;99.90;;;;;;4977405;28;20393;-80
2022/05/12 02:37:55;;;;;;;8.70;3.72;;;11.60;99.90;;;;;;4993350;28;20397;-80
2022/05/12 02:40:25;;;;;;;7.53;3.92;;;11.60;99.90;;;;;;5009006;28;20793;-80
2022/05/12 02:42:54;;;;;;;6.53;3.10;;;11.60;99.90;;;;;;4993273;28;20397;-81
2022/05/12 02:45:22;;;;;;;6.55;3.50;;;11.50;99.90;;;;;;5009355;28;20405;-81
2022/05/12 02:47:50;;;;;;;8.18;3.50;;;11.50;99.90;;;;;;4992885;28;20529;-80
2022/05/12 02:50:18;;;;;;;7.90;3.33;;;11.50;99.90;;;;;;4994354;28;20385;-81
2022/05/12 02:52:47;;;;;;;5.93;3.70;;;11.60;99.90;;;;;;4996468;28;20403;-81
2022/05/12 02:55:14;;;;;;;8.80;3.88;;;11.60;99.90;;;;;;5008875;28;20732;-81
2022/05/12 02:57:43;;;;;;;6.22;3.80;;;11.60;99.90;;;;;;4996696;28;20443;-80
2022/05/12 03:00:16;;;;;;;8.25;4.47;;;11.60;99.90;;;;;;4995071;28;20450;-79
2022/05/12 03:02:44;;;;;;;5.60;4.13;;;11.60;99.90;;;;;;4998041;28;20393;-80
2022/05/12 03:05:13;;;;;;;7.20;3.83;;;11.60;99.90;;;;;;4994153;28;20767;-80
2022/05/12 03:07:42;;;;;;;8.90;3.95;;;11.60;99.90;;;;;;4993951;28;20412;-80
2022/05/12 03:10:11;;;;;;;6.50;4.30;;;11.60;99.90;;;;;;5004345;28;20396;-80
2022/05/12 03:12:39;;;;;;;7.30;4.28;;;11.60;99.90;;;;;;5012542;28;20442;-80
2022/05/12 03:15:08;;;;;;;8.85;4.18;;;11.60;99.90;;;;;;5013235;28;20496;-80
2022/05/12 03:17:36;;;;;;;9.25;3.78;;;11.70;99.90;;;;;;5013147;28;20746;-81
2022/05/12 03:20:11;;;;;;;9.85;4.60;;;11.70;99.90;;;;;;5012112;28;20442;-80
2022/05/12 03:22:39;;;;;;;8.30;4.00;;;11.70;99.90;;;;;;5011733;28;20399;-80
2022/05/12 03:25:10;;;;;;;8.50;5.20;;;11.70;99.90;;;;;;5013005;28;20422;-81
2022/05/12 03:27:40;;;;;;;8.80;5.20;;;11.70;99.90;;;;;;5011871;28;20397;-80
2022/05/12 03:30:12;;;;;;;8.60;4.68;;;11.70;99.90;;;;;;5012103;28;20387;-80
2022/05/12 03:32:40;;;;;;;7.00;4.40;;;11.70;99.90;;;;;;5011238;28;20419;-80
2022/05/12 03:35:09;;;;;;;7.05;3.92;;;11.70;99.90;;;;;;5012713;28;20893;-81
2022/05/12 03:37:39;;;;;;;7.68;4.95;;;11.70;99.90;;;;;;5012679;28;20430;-80
2022/05/12 03:40:08;;;;;;;10.13;5.87;;;11.70;99.90;;;;;;5011406;28;20915;-81
2022/05/12 03:42:36;;;;;;;8.38;4.85;;;11.70;99.90;;;;;;5011309;28;20383;-80
2022/05/12 03:45:04;;;;;;;9.45;5.75;;;11.70;99.90;;;;;;5012587;28;21000;-80
2022/05/12 03:47:35;;;;;;;11.55;5.93;;;11.70;99.90;;;;;;5012339;28;20411;-80
2022/05/12 03:50:14;;;;;;;182.05;18.40;;;11.80;99.90;;;;;;4994835;28;20400;-80
2022/05/12 03:52:47;;;;;;;11.20;6.70;;;11.70;99.90;;;;;;5004360;28;20400;-82
2022/05/12 03:55:18;;;;;;;13.83;7.53;;;11.70;99.90;;;;;;5008684;28;20401;-81
2022/05/12 03:57:49;;;;;;;12.27;7.97;;;11.70;99.90;;;;;;5006768;28;20447;-80
2022/05/12 04:00:24;;;;;;;12.48;8.25;;;11.70;99.90;;;;;;5004282;28;20443;-80
2022/05/12 04:02:51;;;;;;;14.35;8.30;;;11.80;99.90;;;;;;4991668;28;20767;-80
2022/05/12 04:05:20;;;;;;;14.15;8.02;;;11.80;99.90;;;;;;4992943;28;20393;-80
2022/05/12 04:07:51;;;;;;;13.70;7.60;;;11.80;99.90;;;;;;5007729;28;20420;-80
2022/05/12 04:10:20;;;;;;;16.98;8.13;;;11.80;99.90;;;;;;5004088;28;20392;-79
2022/05/12 04:12:48;;;;;;;13.60;8.30;;;11.90;99.90;;;;;;5010924;28;20777;-80
2022/05/12 04:15:16;;;;;;;14.05;8.98;;;11.90;99.90;;;;;;5010583;28;20418;-81
2022/05/12 04:17:46;;;;;;;10.82;8.05;;;11.90;99.90;;;;;;5010715;28;20881;-80
2022/05/12 04:20:14;;;;;;;12.90;7.57;;;11.90;99.90;;;;;;5012015;28;20494;-80
2022/05/12 04:22:45;;;;;;;11.95;7.93;;;11.90;99.90;;;;;;4991117;28;20479;-80
2022/05/12 04:25:12;;;;;;;14.25;7.93;;;11.90;99.90;;;;;;4992494;28;20393;-80
2022/05/12 04:27:41;;;;;;;13.18;7.30;;;11.90;99.90;;;;;;4992547;28;20419;-80
2022/05/12 04:30:11;;;;;;;13.95;7.85;;;11.90;99.90;;;;;;4992505;28;20385;-80
2022/05/12 04:32:40;;;;;;;11.35;7.32;;;11.90;99.90;;;;;;4992447;28;20393;-80
2022/05/12 04:35:15;;;;;;;13.07;8.15;;;11.90;99.90;;;;;;4993015;28;20440;-80
2022/05/12 04:37:56;;;;;;;11.07;7.38;;;11.90;99.90;;;;;;4995336;28;20393;-82
2022/05/12 04:40:29;;;;;;;11.25;8.05;;;11.90;99.90;;;;;;4992427;28;20396;-82
2022/05/12 04:42:59;;;;;;;13.80;9.55;;;11.90;99.90;;;;;;4992874;28;20405;-82
2022/05/12 04:45:30;;;;;;;14.17;9.63;;;12.00;99.90;;;;;;5007433;28;20447;-82
2022/05/12 04:47:58;;;;;;;15.13;10.38;;;12.00;99.90;;;;;;5006939;28;20435;-82
2022/05/12 04:50:29;;;;;;;23.65;10.68;;;12.00;99.90;;;;;;4993313;28;20388;-81
2022/05/12 04:52:57;;;;;;;106.93;17.65;;;12.00;99.90;;;;;;4992305;28;20395;-82
2022/05/12 04:55:25;;;;;;;13.90;9.95;;;11.90;99.90;;;;;;4992228;28;20504;-81
2022/05/12 04:57:55;;;;;;;13.35;10.00;;;11.90;99.90;;;;;;5008843;28;20411;-81
2022/05/12 05:00:28;;;;;;;342.17;26.58;;;11.90;99.90;;;;;;4995926;28;20397;-81
2022/05/12 05:02:55;;;;;;;13.30;9.17;;;11.90;99.90;;;;;;4994350;28;20484;-82
2022/05/12 05:05:24;;;;;;;13.55;10.10;;;12.00;99.90;;;;;;5001023;28;20767;-82
2022/05/12 05:07:52;;;;;;;40.38;11.80;;;11.90;99.90;;;;;;4998811;28;20439;-82
2022/05/12 05:10:20;;;;;;;27.60;10.52;;;12.00;99.90;;;;;;5007428;28;20569;-82
2022/05/12 05:12:48;;;;;;;14.52;10.57;;;12.00;99.90;;;;;;5010506;28;20862;-82
2022/05/12 05:15:16;;;;;;;14.48;11.10;;;12.00;99.90;;;;;;4992357;28;20414;-82
2022/05/12 05:17:45;;;;;;;437.23;37.73;;;12.00;99.90;;;;;;5009579;28;21000;-82
2022/05/12 05:20:18;;;;;;;16.00;10.65;;;12.00;99.90;;;;;;4993791;28;20442;-82
2022/05/12 05:22:47;;;;;;;67.30;12.65;;;11.90;99.90;;;;;;5010265;28;20421;-82
2022/05/12 05:25:15;;;;;;;326.60;29.38;;;12.00;99.90;;;;;;5010038;28;20406;-82
2022/05/12 05:27:46;;;;;;;13.07;9.95;;;11.90;99.90;;;;;;5010064;28;20414;-82
2022/05/12 05:30:18;;;;;;;26.58;10.82;;;11.90;99.90;;;;;;5011208;28;20477;-82
2022/05/12 05:32:47;;;;;;;14.75;11.00;;;12.10;99.90;;;;;;5011250;28;20437;-82
2022/05/12 05:35:15;;;;;;;13.77;9.98;;;12.10;99.90;;;;;;5009873;28;20426;-81
2022/05/12 05:37:44;;;;;;;12.50;9.52;;;12.10;99.90;;;;;;4993777;28;20477;-82
2022/05/12 05:40:16;;;;;;;138.63;16.60;;;12.10;99.90;;;;;;5009799;28;20406;-82
2022/05/12 05:42:45;;;;;;;167.70;16.55;;;12.10;99.90;;;;;;4991794;28;20413;-82
2022/05/12 05:45:16;;;;;;;15.27;10.63;;;12.10;99.90;;;;;;4980665;28;20432;-82
2022/05/12 05:47:49;;;;;;;22.80;10.43;;;12.10;99.90;;;;;;4991493;28;20409;-82
2022/05/12 05:50:21;;;;;;;13.15;10.30;;;12.10;99.90;;;;;;4991893;28;20485;-82
2022/05/12 05:55:35;;;;;;;21.65;10.10;;;12.20;99.90;;;;;;4991720;28;20393;-82
2022/05/12 05:58:05;;;;;;;411.25;27.88;;;12.20;99.90;;;;;;4991593;28;20833;-81
2022/05/12 06:00:34;;;;;;;153.17;21.83;;;12.10;99.90;;;;;;5007075;28;20393;-82
2022/05/12 06:03:02;;;;;;;164.50;18.83;;;12.10;99.90;;;;;;5009707;28;20475;-82
2022/05/12 06:05:31;;;;;;;11.60;9.10;;;12.10;99.90;;;;;;5010976;28;20403;-82
2022/05/12 06:07:59;;;;;;;13.43;10.25;;;12.20;99.90;;;;;;5010987;28;20407;-82
2022/05/12 06:10:27;;;;;;;163.18;28.67;;;12.30;99.90;;;;;;5009562;28;20387;-81
2022/05/12 06:12:55;;;;;;;13.27;9.90;;;12.30;99.90;;;;;;5009727;28;20387;-82
2022/05/12 06:15:25;;;;;;;13.02;9.80;;;12.30;99.90;;;;;;5013600;28;20861;-80
2022/05/12 06:17:54;;;;;;;14.25;10.43;;;12.30;99.90;;;;;;5014499;28;20395;-80
2022/05/12 06:20:23;;;;;;;13.38;9.65;;;12.40;99.90;;;;;;5014193;28;20427;-80
2022/05/12 06:22:51;;;;;;;13.05;9.88;;;12.40;99.90;;;;;;5013208;28;20874;-80
2022/05/12 06:25:19;;;;;;;16.63;11.95;;;12.50;99.90;;;;;;5013338;28;20928;-80
2022/05/12 06:27:47;;;;;;;18.35;12.85;;;12.50;99.90;;;;;;5014089;28;20411;-79
2022/05/12 06:30:15;;;;;;;17.50;12.32;;;12.50;99.90;;;;;;5014117;28;20388;-80
2022/05/12 06:32:44;;;;;;;77.88;15.68;;;12.50;99.90;;;;;;4994617;28;20384;-82
2022/05/12 06:35:16;;;;;;;15.60;11.47;;;12.50;99.90;;;;;;4994776;28;20393;-82
2022/05/12 06:37:44;;;;;;;17.65;12.75;;;12.50;99.90;;;;;;4994699;28;20841;-82
2022/05/12 06:40:13;;;;;;;13.60;11.10;;;12.50;99.90;;;;;;4995147;28;20409;-82
2022/05/12 06:42:49;;;;;;;14.82;11.45;;;12.50;99.90;;;;;;4979045;28;20455;-81
2022/05/12 06:45:19;;;;;;;15.15;11.30;;;12.60;99.90;;;;;;4997830;28;20403;-80
2022/05/12 06:47:50;;;;;;;38.15;13.07;;;12.60;99.90;;;;;;5009103;28;20933;-81
2022/05/12 06:50:21;;;;;;;15.07;10.43;;;12.60;99.90;;;;;;4993028;28;20766;-81
2022/05/12 06:52:49;;;;;;;58.28;15.02;;;12.60;99.90;;;;;;5012610;28;20383;-82
2022/05/12 06:55:17;;;;;;;15.25;11.02;;;12.60;99.90;;;;;;4996236;28;20423;-82
2022/05/12 06:57:46;;;;;;;16.08;11.57;;;12.60;99.90;;;;;;5013553;28;20401;-82
2022/05/12 07:00:16;;;;;;;15.13;11.35;;;12.70;99.90;;;;;;5013571;28;20487;-79
2022/05/12 07:02:46;;;;;;;17.48;12.50;;;12.70;99.90;;;;;;5009204;28;20651;-82
2022/05/12 07:05:16;;;;;;;462.92;38.88;;;12.80;99.90;;;;;;4976825;28;20433;-82
2022/05/12 07:07:43;;;;;;;144.53;19.33;;;12.70;99.90;;;;;;5000530;28;20405;-81
2022/05/12 07:10:13;;;;;;;29.35;14.65;;;12.70;99.90;;;;;;4994063;28;20385;-81
2022/05/12 07:12:41;;;;;;;20.75;12.88;;;12.70;99.90;;;;;;4994302;28;20396;-82
2022/05/12 07:15:10;;;;;;;273.30;25.42;;;12.80;99.90;;;;;;4996956;28;20405;-81
2022/05/12 07:17:38;;;;;;;345.10;35.42;;;12.80;99.90;;;;;;4996974;28;20403;-81
2022/05/12 07:28:26;;;;;;;14.65;11.52;;;12.80;99.90;;;;;;4993575;28;20831;-82
2022/05/12 07:31:03;;;;;;;71.88;14.38;;;12.80;99.90;;;;;;4992184;28;20486;-82
2022/05/12 07:33:39;;;;;;;43.50;12.75;;;12.70;99.90;;;;;;5002156;28;20717;-81
2022/05/12 07:36:16;;;;;;;13.38;10.10;;;12.70;99.90;;;;;;5003449;28;20464;-81
2022/05/12 07:38:45;;;;;;;16.65;10.70;;;12.70;99.90;;;;;;4993357;28;20377;-82
2022/05/12 07:41:13;;;;;;;13.38;10.25;;;12.70;99.90;;;;;;4995967;28;20388;-82
2022/05/12 07:43:43;;;;;;;12.73;9.95;;;12.70;99.90;;;;;;5004458;28;20506;-81
2022/05/12 07:46:13;;;;;;;495.48;37.35;;;12.60;99.90;;;;;;5012553;28;20474;-81
2022/05/12 07:48:42;;;;;;;172.43;15.50;;;12.60;99.90;;;;;;5008977;28;20417;-81
2022/05/12 07:51:10;;;;;;;12.30;8.77;;;12.50;99.90;;;;;;4998780;28;20834;-81
2022/05/12 07:53:38;;;;;;;16.25;9.90;;;12.50;99.90;;;;;;4995207;28;20902;-82
2022/05/12 07:56:07;;;;;;;253.38;24.70;;;12.50;99.90;;;;;;5012082;28;20772;-82
2022/05/12 07:58:36;;;;;;;345.60;26.00;;;12.50;99.90;;;;;;5012028;28;20395;-82
2022/05/12 08:01:04;;;;;;;752.95;42.65;;;12.30;99.90;;;;;;4994723;28;20391;-82
2022/05/12 08:03:32;;;;;;;17.95;8.32;;;12.20;99.90;;;;;;4995117;28;20454;-82
2022/05/12 08:06:01;;;;;;;268.90;20.98;;;12.30;99.90;;;;;;5010814;28;20391;-81
2022/05/12 08:08:28;;;;;;;58.60;11.82;;;12.10;99.90;;;;;;4994489;28;20404;-81
2022/05/12 08:10:56;;;;;;;12.07;7.57;;;12.10;99.90;;;;;;4992739;28;20389;-82
2022/05/12 08:13:25;;;;;;;12.48;7.60;;;12.20;99.90;;;;;;4999051;28;20476;-81
2022/05/12 08:15:53;;;;;;;37.25;9.27;;;12.30;99.90;;;;;;5000632;28;20811;-82
2022/05/12 08:18:23;;;;;;;100.47;13.67;;;12.40;99.90;;;;;;4993052;28;20393;-82
2022/05/12 08:20:52;;;;;;;11.57;7.13;;;12.30;99.90;;;;;;4999619;28;20407;-81
2022/05/12 08:23:21;;;;;;;13.07;7.25;;;12.40;99.90;;;;;;5000035;28;20397;-82
2022/05/12 08:25:50;;;;;;;102.80;12.33;;;12.40;99.90;;;;;;5000279;28;20913;-81
2022/05/12 08:28:25;;;;;;;11.73;7.45;;;12.30;99.90;;;;;;5004023;28;20404;-82
2022/05/12 08:30:53;;;;;;;28.67;8.38;;;12.30;99.90;;;;;;4992643;28;20778;-82
2022/05/12 08:33:22;;;;;;;89.88;12.05;;;12.30;99.90;;;;;;4991101;28;20464;-82
2022/05/12 08:35:50;;;;;;;11.57;7.32;;;12.40;99.90;;;;;;5010623;28;20383;-82
2022/05/12 08:38:19;;;;;;;11.55;7.70;;;12.40;99.90;;;;;;5010769;28;20391;-81
2022/05/12 08:41:45;;;;;;;208.80;18.25;;;12.30;99.90;;;;;;5010895;28;20418;-82
2022/05/12 08:44:16;;;;;;;88.07;10.55;;;12.30;99.90;;;;;;5011498;28;20501;-82
2022/05/12 08:46:49;;;;;;;9.48;6.72;;;12.20;99.90;;;;;;4990868;28;20389;-81
2022/05/12 08:49:37;;;;;;;11.07;7.35;;;12.30;99.90;;;;;;4992752;28;20487;-82
2022/05/12 08:52:18;;;;;;;487.42;31.75;;;12.30;99.90;;;;;;4991840;28;20393;-81
2022/05/12 08:54:56;;;;;;;11.82;7.30;;;12.30;99.90;;;;;;4998261;28;20466;-82
2022/05/12 08:57:43;;;;;;;78.50;10.70;;;12.30;99.90;;;;;;5010397;28;20402;-82
2022/05/12 09:00:15;;;;;;;12.02;7.38;;;12.30;99.90;;;;;;5010209;28;20478;-82
2022/05/12 09:02:45;;;;;;;11.27;6.47;;;12.30;99.90;;;;;;4992248;28;20411;-82
2022/05/12 09:05:18;;;;;;;29.60;8.43;;;12.40;99.90;;;;;;4994667;28;20466;-82
2022/05/12 09:08:08;;;;;;;73.80;10.37;;;12.40;99.90;;;;;;5003642;28;20406;-82
2022/05/12 09:10:51;;;;;;;107.47;13.45;;;12.50;99.90;;;;;;4988157;28;21002;-82
2022/05/12 09:13:39;;;;;;;10.38;6.43;;;12.40;99.90;;;;;;4992917;28;20438;-82
2022/05/12 09:16:30;;;;;;;101.75;12.38;;;12.50;99.90;;;;;;5002009;28;20867;-82
2022/05/12 09:18:59;;;;;;;409.13;31.38;;;12.60;99.90;;;;;;4991832;28;20812;-82
2022/05/12 09:21:31;;;;;;;118.60;11.02;;;12.50;99.90;;;;;;4982179;28;20389;-82
2022/05/12 09:23:59;;;;;;;8.67;6.50;;;12.60;99.90;;;;;;5006648;28;20931;-82
2022/05/12 09:26:40;;;;;;;27.20;7.00;;;12.60;99.90;;;;;;4991839;28;20399;-82
2022/05/12 09:29:25;;;;;;;105.25;10.00;;;12.70;99.90;;;;;;4991782;28;20594;-82
2022/05/12 09:32:14;;;;;;;183.47;17.43;;;12.70;99.90;;;;;;4991549;28;20392;-81
2022/05/12 09:34:46;;;;;;;1999.90;276.35;;;12.60;99.90;;;;;;5010881;28;20475;-82
2022/05/12 09:37:15;;;;;;;1582.15;141.35;;;12.50;99.90;;;;;;5010807;28;20479;-82
2022/05/12 09:39:46;;;;;;;1240.80;133.85;;;12.60;99.90;;;;;;5010660;28;20394;-82
2022/05/12 09:42:29;;;;;;;1999.90;171.00;;;12.50;99.90;;;;;;5010786;28;20395;-81
2022/05/12 09:45:00;;;;;;;1999.90;217.47;;;12.50;99.90;;;;;;5010168;28;20746;-82
2022/05/12 09:47:30;;;;;;;1999.90;181.25;;;12.50;99.90;;;;;;5009409;28;20461;-82
2022/05/12 09:50:21;;;;;;;1999.90;161.75;;;12.50;99.90;;;;;;5013428;28;20491;-81
2022/05/12 09:53:03;;;;;;;1999.90;168.27;;;12.40;99.90;;;;;;4995493;28;20893;-81
2022/05/12 09:55:38;;;;;;;1999.90;174.03;;;12.40;99.90;;;;;;5006036;28;20865;-82
2022/05/12 09:58:14;;;;;;;1999.90;222.68;;;12.30;99.90;;;;;;4994051;28;20517;-81
2022/05/12 10:00:50;;;;;;;1999.90;181.52;;;12.20;99.90;;;;;;4993737;28;20407;-80
2022/05/12 10:09:12;;;;;;;1999.90;159.15;;;12.10;99.90;;;;;;4994927;28;20409;-80
2022/05/12 10:12:16;;;;;;;1776.13;125.15;;;12.00;99.90;;;;;;4999869;28;20412;-81
2022/05/12 10:14:52;;;;;;;1999.90;152.48;;;12.00;99.90;;;;;;4993584;28;20428;-81
2022/05/12 10:17:36;;;;;;;1467.32;154.88;;;12.00;99.90;;;;;;4994955;28;20589;-81
2022/05/12 10:20:36;;;;;;;899.45;66.13;;;11.90;99.90;;;;;;4994900;28;20476;-82
2022/05/12 10:23:28;;;;;;;1010.00;64.00;;;12.20;99.90;;;;;;4995179;28;20487;-81
2022/05/12 10:26:25;;;;;;;1999.90;191.50;;;12.10;99.90;;;;;;5003228;28;20759;-81
2022/05/12 10:29:21;;;;;;;1999.90;193.70;;;12.20;99.90;;;;;;4998058;28;20418;-81
2022/05/12 10:32:22;;;;;;;1999.90;167.18;;;12.10;99.90;;;;;;5013013;28;20458;-81
2022/05/12 10:35:22;;;;;;;12.00;8.38;;;12.10;99.90;;;;;;4985390;28;20393;-81
2022/05/12 10:38:01;;;;;;;11.38;8.15;;;12.00;99.90;;;;;;4995065;28;20822;-81
2022/05/12 10:40:40;;;;;;;12.73;8.35;;;12.00;99.90;;;;;;5023196;28;20392;-81
2022/05/12 10:43:15;;;;;;;11.60;7.00;;;12.00;99.90;;;;;;5002449;28;20387;-81
2022/05/12 10:45:54;;;;;;;7.90;5.10;;;12.00;99.90;;;;;;5023963;28;20794;-81
2022/05/12 10:49:04;;;;;;;4.22;2.85;;;12.00;99.90;;;;;;5006651;28;20877;-81
2022/05/12 10:51:51;;;;;;;3.33;2.00;;;11.80;99.90;;;;;;4994349;28;20451;-81
2022/05/12 10:54:55;;;;;;;2.00;1.55;;;11.50;99.90;;;;;;4989004;28;20405;-81
2022/05/12 10:57:28;;;;;;;2.60;1.30;;;11.40;99.90;;;;;;4993099;28;20400;-81
2022/05/12 11:00:18;;;;;;;1.80;1.27;;;11.30;99.90;;;;;;4993750;28;20392;-81
2022/05/12 11:02:50;;;;;;;2.40;1.20;;;11.30;99.90;;;;;;4994763;28;20752;-81
2022/05/12 11:05:21;;;;;;;3.22;1.50;;;11.30;99.90;;;;;;4998107;28;20415;-81
2022/05/12 11:08:11;;;;;;;1.85;1.30;;;11.30;99.90;;;;;;4996677;28;20922;-81
2022/05/12 11:10:48;;;;;;;2.42;1.40;;;11.30;99.90;;;;;;5008662;28;20397;-81
2022/05/12 11:13:32;;;;;;;1.90;1.30;;;11.40;99.90;;;;;;4994109;28;20395;-81
2022/05/12 11:16:11;;;;;;;2.83;1.60;;;11.50;99.90;;;;;;5003293;28;20385;-81
2022/05/12 11:19:07;;;;;;;2.13;1.50;;;11.50;99.90;;;;;;5012982;28;20395;-81
2022/05/12 11:21:42;;;;;;;3.45;1.70;;;11.60;99.90;;;;;;5013216;28;20750;-81
2022/05/12 11:24:17;;;;;;;2.53;1.50;;;11.80;99.90;;;;;;5013146;28;20766;-81
2022/05/12 11:27:01;;;;;;;3.45;1.45;;;11.80;99.90;;;;;;4993855;28;20465;-81
2022/05/12 11:29:44;;;;;;;3.13;1.60;;;11.90;99.90;;;;;;4993743;28;20873;-82
2022/05/12 11:32:13;;;;;;;4.53;1.80;;;12.00;99.90;;;;;;5008651;28;20979;-81
2022/05/12 11:34:45;;;;;;;3.50;1.60;;;12.00;99.90;;;;;;4993903;28;20416;-81
2022/05/12 11:37:42;;;;;;;4.45;1.50;;;12.00;99.90;;;;;;4993639;28;20386;-81
2022/05/12 11:40:30;;;;;;;2.90;1.58;;;11.90;99.90;;;;;;4976478;28;20393;-81
2022/05/12 11:45:48;;;;;;;2.80;1.70;;;11.80;99.90;;;;;;5012767;28;20449;-81
2022/05/12 11:48:49;;;;;;;3.85;1.90;;;11.80;99.90;;;;;;5011147;28;20418;-81
2022/05/12 11:52:01;;;;;;;2.97;1.90;;;11.70;99.90;;;;;;4985655;28;20391;-81
2022/05/12 11:54:36;;;;;;;3.30;1.20;;;11.70;99.90;;;;;;4979469;28;20405;-81
2022/05/12 11:57:19;;;;;;;2.92;1.48;;;11.40;99.90;;;;;;5012588;28;20877;-81
2022/05/12 11:59:52;;;;;;;2.30;1.20;;;11.50;99.90;;;;;;5011608;28;20422;-81
2022/05/12 12:02:29;;;;;;;3.28;1.10;;;11.60;99.90;;;;;;4993051;28;20398;-81
2022/05/12 12:05:03;;;;;;;1.75;1.00;;;11.60;99.90;;;;;;5008127;28;20452;-81
2022/05/12 12:07:31;;;;;;;1.55;0.90;;;11.50;99.90;;;;;;4993309;28;20392;-81
2022/05/12 12:10:27;;;;;;;3.20;1.00;;;11.50;99.90;;;;;;4993048;28;20397;-81
2022/05/12 12:13:31;;;;;;;2.40;1.00;;;11.50;99.90;;;;;;5005079;28;20745;-81
2022/05/12 12:16:07;;;;;;;1.77;0.90;;;11.50;99.90;;;;;;5010012;28;20402;-81
2022/05/12 12:18:35;;;;;;;2.70;0.93;;;11.50;99.90;;;;;;5008943;28;20796;-81
2022/05/12 12:21:37;;;;;;;1.50;1.00;;;11.40;99.90;;;;;;5007652;28;20400;-81
2022/05/12 12:24:20;;;;;;;2.33;1.00;;;11.50;99.90;;;;;;5003116;28;20431;-82
2022/05/12 12:26:54;;;;;;;2.83;1.20;;;11.60;99.90;;;;;;5008583;28;20478;-82
2022/05/12 12:30:19;;;;;;;3.50;0.90;;;11.50;99.90;;;;;;4997501;28;20434;-81
2022/05/12 12:33:09;;;;;;;2.30;1.10;;;11.60;99.90;;;;;;4949408;29;20911;-81
2022/05/12 12:36:03;;;;;;;2.77;0.90;;;11.60;99.90;;;;;;4950580;29;20872;-81
2022/05/12 12:38:49;;;;;;;1.97;1.07;;;11.50;99.90;;;;;;4990824;28;20452;-81
2022/05/12 12:41:31;;;;;;;3.50;1.20;;;11.30;99.90;;;;;;4992656;28;20399;-81
2022/05/12 12:44:03;;;;;;;3.10;0.93;;;11.40;99.90;;;;;;4993310;28;20414;-81
2022/05/12 12:46:55;;;;;;;5.47;1.23;;;11.50;99.90;;;;;;4993104;28;20424;-81
2022/05/12 12:49:48;;;;;;;3.47;1.23;;;11.50;99.90;;;;;;5002518;28;20929;-81
2022/05/12 12:52:18;;;;;;;2.72;1.20;;;11.40;99.90;;;;;;4978080;28;20401;-81
2022/05/12 12:57:47;;;;;;;5.03;1.10;;;11.30;99.90;;;;;;4992289;28;20404;-81
2022/05/12 13:00:27;;;;;;;4.23;1.10;;;11.20;99.90;;;;;;5007342;28;20393;-81
2022/05/12 13:03:19;;;;;;;1.48;0.98;;;11.10;99.90;;;;;;4996115;28;20471;-81
2022/05/12 13:05:49;;;;;;;2.28;1.00;;;11.10;99.90;;;;;;5000118;28;20435;-81
2022/05/12 13:08:28;;;;;;;2.75;1.00;;;11.20;99.90;;;;;;5011286;28;20411;-81
2022/05/12 13:10:59;;;;;;;1.67;0.90;;;11.20;99.90;;;;;;4992059;28;20439;-81
2022/05/12 13:13:28;;;;;;;2.47;1.00;;;11.30;99.90;;;;;;4992497;28;20490;-81
2022/05/12 13:15:59;;;;;;;1.50;1.00;;;11.50;99.90;;;;;;5007643;28;20487;-81
2022/05/12 13:18:34;;;;;;;1.88;1.00;;;11.80;99.90;;;;;;5003575;28;20409;-81
2022/05/12 13:21:03;;;;;;;1.85;0.90;;;12.20;99.90;;;;;;4995552;28;20467;-81
2022/05/12 13:23:41;;;;;;;2.47;1.10;;;12.40;99.90;;;;;;5002949;28;20977;-81
2022/05/12 13:26:13;;;;;;;2.60;1.00;;;12.30;99.90;;;;;;4999024;28;20748;-80
2022/05/12 13:28:43;;;;;;;3.17;1.00;;;12.10;99.90;;;;;;4999840;28;20404;-80
2022/05/12 13:31:24;;;;;;;3.40;0.90;;;12.00;99.90;;;;;;5000603;28;20516;-82